Time;durP1;ratioP1;P1;durP2;ratioP2;P2;SDS_P1;SDS_P2;PMS_P1;PMS_P2;Temp;Humidity;BMP_temperature;BMP_pressure;BME280_temperature;BME280_humidity;BME280_pressure;Samples;Min_cycle;Max_cycle;Signal;HPM_P1;HPM_P2
2021/04/15 00:01:31;;;;;;;0.40;0.35;;;4.20;70.50;;;;;;5072828;28;20052;-75
2021/04/15 00:03:56;;;;;;;0.32;0.28;;;4.20;70.50;;;;;;5055895;28;20036;-76
2021/04/15 00:06:26;;;;;;;0.20;0.20;;;4.20;70.40;;;;;;5073228;28;20491;-76
2021/04/15 00:08:53;;;;;;;0.20;0.20;;;4.20;70.40;;;;;;5073266;28;20055;-76
2021/04/15 00:11:21;;;;;;;0.30;0.30;;;4.30;70.40;;;;;;5071783;28;20396;-77
2021/04/15 00:13:51;;;;;;;0.47;0.47;;;4.30;70.40;;;;;;5068306;28;20051;-75
2021/04/15 00:16:18;;;;;;;0.43;0.43;;;4.30;70.40;;;;;;5061234;28;20108;-75
2021/04/15 00:18:43;;;;;;;0.45;0.45;;;4.30;70.50;;;;;;5053321;28;20025;-74
2021/04/15 00:21:10;;;;;;;0.40;0.40;;;4.20;70.70;;;;;;5070907;28;20465;-75
2021/04/15 00:23:36;;;;;;;0.45;0.45;;;4.20;71.00;;;;;;5072906;28;20086;-75
2021/04/15 00:26:03;;;;;;;0.30;0.30;;;4.10;71.30;;;;;;5072987;28;20017;-75
2021/04/15 00:28:28;;;;;;;0.40;0.40;;;4.00;71.60;;;;;;5073057;28;20032;-75
2021/04/15 00:30:54;;;;;;;0.30;0.30;;;3.90;71.80;;;;;;5072623;28;20070;-75
2021/04/15 00:33:20;;;;;;;0.30;0.30;;;3.90;71.90;;;;;;5054952;28;20110;-74
2021/04/15 00:35:48;;;;;;;0.40;0.40;;;3.90;72.70;;;;;;5052715;28;20021;-74
2021/04/15 00:38:15;;;;;;;0.20;0.20;;;3.80;72.20;;;;;;5052821;28;20029;-75
2021/04/15 00:40:42;;;;;;;0.20;0.20;;;3.80;72.40;;;;;;5052888;28;20029;-76
2021/04/15 00:43:08;;;;;;;1.20;0.40;;;3.80;72.60;;;;;;5054007;28;20477;-75
2021/04/15 00:45:37;;;;;;;0.30;0.28;;;3.70;72.50;;;;;;5056335;28;20071;-74
2021/04/15 00:48:08;;;;;;;0.40;0.40;;;3.60;72.60;;;;;;5056646;28;20477;-76
2021/04/15 00:50:41;;;;;;;0.40;0.40;;;3.60;72.80;;;;;;5056790;28;20493;-75
2021/04/15 00:53:11;;;;;;;0.22;0.22;;;3.60;73.50;;;;;;5056822;28;20021;-75
2021/04/15 00:55:38;;;;;;;0.57;0.50;;;3.50;72.80;;;;;;5056587;28;20021;-75
2021/04/15 00:58:04;;;;;;;0.13;0.13;;;3.50;73.10;;;;;;5056353;28;20045;-74
2021/04/15 01:00:31;;;;;;;0.30;0.30;;;3.50;73.40;;;;;;5056113;28;20031;-73
2021/04/15 01:03:00;;;;;;;0.20;0.20;;;3.40;73.40;;;;;;5056536;28;20029;-74
2021/04/15 01:05:36;;;;;;;0.22;0.22;;;3.40;73.60;;;;;;5055320;28;20076;-74
2021/04/15 01:08:03;;;;;;;0.28;0.28;;;3.40;73.60;;;;;;5056463;28;20028;-73
2021/04/15 01:10:32;;;;;;;0.30;0.30;;;3.50;73.50;;;;;;5056019;28;20500;-73
2021/04/15 01:13:20;;;;;;;0.20;0.20;;;3.60;73.50;;;;;;5055969;28;20027;-74
2021/04/15 01:16:24;;;;;;;0.30;0.30;;;3.60;73.50;;;;;;5056250;28;20031;-73
2021/04/15 01:19:20;;;;;;;0.20;0.20;;;3.70;73.50;;;;;;5054927;28;20039;-74
2021/04/15 01:22:09;;;;;;;0.20;0.20;;;3.70;73.50;;;;;;5056140;28;20052;-74
2021/04/15 01:24:42;;;;;;;0.20;0.20;;;3.60;73.60;;;;;;5056149;28;20029;-74
2021/04/15 01:27:38;;;;;;;0.30;0.20;;;3.60;73.90;;;;;;5056212;28;20024;-74
2021/04/15 01:30:12;;;;;;;0.30;0.30;;;3.60;74.20;;;;;;5055917;28;20025;-74
2021/04/15 01:32:56;;;;;;;1.08;0.30;;;3.60;74.30;;;;;;5055952;28;20104;-73
2021/04/15 01:35:36;;;;;;;0.15;0.15;;;3.50;74.30;;;;;;5056201;28;20029;-73
2021/04/15 01:38:26;;;;;;;0.50;0.50;;;3.50;74.60;;;;;;5055845;28;20493;-74
2021/04/15 01:41:14;;;;;;;0.28;0.28;;;3.40;74.60;;;;;;5055384;28;20389;-74
2021/04/15 01:43:56;;;;;;;0.20;0.20;;;3.40;74.70;;;;;;5055479;28;20055;-75
2021/04/15 01:46:27;;;;;;;0.20;0.20;;;3.40;74.70;;;;;;5055696;28;20028;-75
2021/04/15 01:48:53;;;;;;;0.20;0.20;;;3.40;74.80;;;;;;5055777;28;20021;-74
2021/04/15 01:51:40;;;;;;;0.30;0.30;;;3.30;74.90;;;;;;5055611;28;20031;-75
2021/04/15 01:54:40;;;;;;;0.30;0.30;;;3.40;75.20;;;;;;5055056;28;20445;-74
2021/04/15 01:57:14;;;;;;;0.20;0.20;;;3.40;75.20;;;;;;5051648;28;20052;-74
2021/04/15 01:59:52;;;;;;;0.30;0.30;;;3.40;75.20;;;;;;5055451;28;20017;-74
2021/04/15 02:02:28;;;;;;;0.20;0.20;;;3.50;75.00;;;;;;5055447;28;20541;-74
2021/04/15 02:05:01;;;;;;;0.20;0.20;;;3.50;75.60;;;;;;5055530;28;20029;-75
2021/04/15 02:07:31;;;;;;;0.30;0.30;;;3.50;75.00;;;;;;5055303;28;20025;-74
2021/04/15 02:09:58;;;;;;;0.17;0.17;;;3.60;74.90;;;;;;5055397;28;20017;-73
2021/04/15 02:12:28;;;;;;;0.30;0.30;;;3.60;74.80;;;;;;5054662;28;20045;-74
2021/04/15 02:15:06;;;;;;;0.20;0.20;;;3.70;74.80;;;;;;5055223;28;20056;-75
2021/04/15 02:17:36;;;;;;;0.20;0.20;;;3.70;74.90;;;;;;5055182;28;20053;-74
2021/04/15 02:20:23;;;;;;;0.20;0.20;;;3.70;75.00;;;;;;5055100;28;20040;-74
2021/04/15 02:22:52;;;;;;;0.20;0.20;;;3.80;74.90;;;;;;5055062;28;20033;-74
2021/04/15 02:26:06;;;;;;;0.20;0.20;;;3.90;74.90;;;;;;5053740;28;20539;-74
2021/04/15 02:28:40;;;;;;;0.20;0.20;;;3.90;74.80;;;;;;5036223;28;20044;-74
2021/04/15 02:31:15;;;;;;;0.38;0.25;;;3.90;74.90;;;;;;5053675;28;20444;-74
2021/04/15 02:33:47;;;;;;;0.20;0.20;;;3.90;75.00;;;;;;5055005;28;20029;-74
2021/04/15 02:36:13;;;;;;;0.10;0.10;;;3.90;75.10;;;;;;5053542;28;20033;-74
2021/04/15 02:38:57;;;;;;;0.28;0.28;;;4.00;75.20;;;;;;5058037;28;20021;-74
2021/04/15 02:41:31;;;;;;;0.38;0.38;;;4.00;75.30;;;;;;5054760;28;20100;-73
2021/04/15 02:44:11;;;;;;;0.20;0.20;;;4.10;75.30;;;;;;5064564;28;20140;-73
2021/04/15 02:46:45;;;;;;;;;;;4.10;75.20;;;;;;5075135;28;20028;-73
2021/04/15 02:49:14;;;;;;;0.10;0.10;;;4.10;74.90;;;;;;5073599;28;19949;-74
2021/04/15 02:52:00;;;;;;;0.28;0.28;;;4.20;75.10;;;;;;5074560;28;20047;-74
2021/04/15 02:54:49;;;;;;;0.20;0.20;;;4.30;75.20;;;;;;5073915;28;20032;-75
2021/04/15 02:57:25;;;;;;;0.20;0.20;;;4.30;75.10;;;;;;5074385;28;20028;-74
2021/04/15 03:00:10;;;;;;;0.20;0.20;;;4.30;75.10;;;;;;5073135;28;20035;-74
2021/04/15 03:02:41;;;;;;;0.28;0.25;;;4.30;75.10;;;;;;5074308;28;20052;-73
2021/04/15 03:05:09;;;;;;;0.20;0.20;;;4.30;75.30;;;;;;5073825;28;20025;-73
2021/04/15 03:07:38;;;;;;;0.63;0.40;;;4.30;75.50;;;;;;5073837;28;20111;-73
2021/04/15 03:10:10;;;;;;;0.30;0.30;;;4.20;75.60;;;;;;5073692;28;20017;-73
2021/04/15 03:12:40;;;;;;;0.30;0.30;;;4.20;75.80;;;;;;5074071;28;20047;-74
2021/04/15 03:15:17;;;;;;;0.20;0.20;;;4.10;76.10;;;;;;5074111;28;20523;-74
2021/04/15 03:17:47;;;;;;;0.30;0.30;;;4.00;76.40;;;;;;5073987;28;20035;-73
2021/04/15 03:20:15;;;;;;;;;;;3.90;76.70;;;;;;5073168;28;20468;-74
2021/04/15 03:23:00;;;;;;;0.30;0.30;;;3.70;76.70;;;;;;5074194;28;19904;-74
2021/04/15 03:25:26;;;;;;;0.70;0.40;;;3.60;77.30;;;;;;5073310;28;20017;-74
2021/04/15 03:28:06;;;;;;;0.20;0.20;;;3.60;77.40;;;;;;5074177;28;20103;-74
2021/04/15 03:30:34;;;;;;;;;;;3.60;77.50;;;;;;5074224;28;20044;-73
2021/04/15 03:33:10;;;;;;;0.20;0.20;;;3.40;77.20;;;;;;5073667;28;19906;-73
2021/04/15 03:35:43;;;;;;;0.30;0.30;;;3.40;77.60;;;;;;5073760;28;20062;-74
2021/04/15 03:38:15;;;;;;;0.20;0.20;;;3.40;77.80;;;;;;5073237;28;20696;-73
2021/04/15 03:40:47;;;;;;;0.30;0.30;;;3.30;77.80;;;;;;5073923;28;20051;-74
2021/04/15 03:43:28;;;;;;;0.20;0.20;;;3.30;77.80;;;;;;5073527;28;20090;-74
2021/04/15 03:46:48;;;;;;;0.30;0.30;;;3.20;77.80;;;;;;5073701;28;20060;-73
2021/04/15 03:49:25;;;;;;;0.90;0.90;;;3.20;77.80;;;;;;5032276;28;20431;-74
2021/04/15 03:52:03;;;;;;;0.22;0.22;;;3.10;78.20;;;;;;5072150;28;20020;-73
2021/04/15 03:54:36;;;;;;;0.20;0.20;;;3.10;77.80;;;;;;5072755;28;20094;-73
2021/04/15 03:57:03;;;;;;;0.20;0.20;;;3.10;77.80;;;;;;5072138;28;20036;-73
2021/04/15 03:59:53;;;;;;;0.20;0.20;;;3.00;77.70;;;;;;5072247;28;20024;-74
2021/04/15 04:02:44;;;;;;;1.95;0.28;;;3.00;77.70;;;;;;5073364;28;20025;-74
2021/04/15 04:05:23;;;;;;;0.30;0.30;;;3.00;77.70;;;;;;5062489;28;20436;-74
2021/04/15 04:07:53;;;;;;;0.20;0.20;;;3.00;77.80;;;;;;5072920;28;20362;-74
2021/04/15 04:10:26;;;;;;;0.43;0.20;;;3.00;77.80;;;;;;5073180;28;20024;-72
2021/04/15 04:13:06;;;;;;;0.20;0.20;;;3.00;77.80;;;;;;5073344;28;20380;-74
2021/04/15 04:15:38;;;;;;;0.20;0.20;;;3.00;77.80;;;;;;5073283;28;20107;-73
2021/04/15 04:18:18;;;;;;;0.30;0.30;;;2.90;77.80;;;;;;5072859;28;20033;-74
2021/04/15 04:20:44;;;;;;;0.20;0.20;;;2.90;77.80;;;;;;5071869;28;20025;-74
2021/04/15 04:23:35;;;;;;;0.30;0.30;;;2.80;77.80;;;;;;5072645;28;20100;-73
2021/04/15 04:26:24;;;;;;;0.20;0.20;;;2.80;77.90;;;;;;5073107;28;20078;-74
2021/04/15 04:29:05;;;;;;;0.20;0.20;;;2.80;78.00;;;;;;5073127;28;20029;-74
2021/04/15 04:31:42;;;;;;;0.20;0.20;;;2.70;78.00;;;;;;5073284;28;20366;-73
2021/04/15 04:34:08;;;;;;;0.30;0.30;;;2.70;78.10;;;;;;5073128;28;20029;-74
2021/04/15 04:36:36;;;;;;;0.10;0.10;;;2.60;78.10;;;;;;5071041;28;20024;-73
2021/04/15 04:39:04;;;;;;;0.30;0.30;;;2.60;78.20;;;;;;5071720;28;20112;-73
2021/04/15 04:41:58;;;;;;;0.40;0.40;;;2.50;78.20;;;;;;5072844;28;20032;-74
2021/04/15 04:44:37;;;;;;;0.30;0.30;;;2.50;78.20;;;;;;5072749;28;20074;-74
2021/04/15 04:47:12;;;;;;;0.25;0.25;;;2.50;78.20;;;;;;5073031;28;20134;-74
2021/04/15 04:49:44;;;;;;;0.22;0.22;;;2.40;78.30;;;;;;5072903;28;20023;-74
2021/04/15 04:52:18;;;;;;;0.40;0.40;;;2.40;78.60;;;;;;5063735;28;20017;-72
2021/04/15 04:54:44;;;;;;;0.40;0.40;;;2.20;78.70;;;;;;5052669;28;20017;-73
2021/04/15 04:57:17;;;;;;;0.50;0.50;;;2.10;79.00;;;;;;5063719;28;20040;-73
2021/04/15 04:59:46;;;;;;;0.40;0.40;;;2.10;79.40;;;;;;5072874;28;20024;-73
2021/04/15 05:02:13;;;;;;;;;;;2.10;79.40;;;;;;5073211;28;20036;-74
2021/04/15 05:04:39;;;;;;;0.65;0.50;;;2.00;79.10;;;;;;5072685;28;19919;-73
2021/04/15 05:07:10;;;;;;;0.63;0.40;;;2.00;79.30;;;;;;5072136;28;20032;-74
2021/04/15 05:09:40;;;;;;;0.40;0.40;;;2.10;79.40;;;;;;5072684;28;20077;-73
2021/04/15 05:12:27;;;;;;;0.70;0.70;;;2.20;79.50;;;;;;5072638;28;20416;-73
2021/04/15 05:14:55;;;;;;;0.40;0.40;;;2.20;79.30;;;;;;5072273;28;20040;-73
2021/04/15 05:17:31;;;;;;;0.60;0.60;;;2.30;79.20;;;;;;5072587;28;20033;-73
2021/04/15 05:20:00;;;;;;;0.60;0.60;;;2.30;79.20;;;;;;5072193;28;20122;-73
2021/04/15 05:22:38;;;;;;;1.55;1.13;;;2.30;79.30;;;;;;5072678;28;20021;-73
2021/04/15 05:25:13;;;;;;;0.70;0.50;;;2.40;79.40;;;;;;5072731;28;20020;-73
2021/04/15 05:27:40;;;;;;;0.60;0.60;;;2.40;79.40;;;;;;5071163;28;20034;-74
2021/04/15 05:30:36;;;;;;;0.28;0.28;;;2.50;79.40;;;;;;5074974;28;20024;-74
2021/04/15 05:33:05;;;;;;;0.60;0.60;;;2.60;79.40;;;;;;5076344;28;20028;-73
2021/04/15 05:35:42;;;;;;;0.50;0.50;;;2.60;79.30;;;;;;5075594;28;20104;-74
2021/04/15 05:38:10;;;;;;;0.50;0.50;;;2.60;79.20;;;;;;5075911;28;20058;-73
2021/04/15 05:40:37;;;;;;;0.50;0.50;;;2.70;79.10;;;;;;5075939;28;20020;-74
2021/04/15 05:43:17;;;;;;;1.13;0.73;;;2.80;79.00;;;;;;5075827;28;20025;-73
2021/04/15 05:45:45;;;;;;;0.47;0.47;;;2.90;79.00;;;;;;5075805;28;20017;-73
2021/04/15 05:48:13;;;;;;;0.32;0.32;;;3.00;79.00;;;;;;5074391;28;20225;-73
2021/04/15 05:50:51;;;;;;;0.60;0.60;;;3.10;78.90;;;;;;5075218;28;20070;-73
2021/04/15 05:53:22;;;;;;;0.50;0.50;;;3.20;78.80;;;;;;5075793;28;20473;-73
2021/04/15 05:55:52;;;;;;;0.40;0.40;;;3.40;78.70;;;;;;5074277;28;20075;-74
2021/04/15 05:58:24;;;;;;;0.50;0.50;;;3.50;78.50;;;;;;5075641;28;20032;-73
2021/04/15 06:01:03;;;;;;;0.50;0.50;;;3.70;78.40;;;;;;5075681;28;20087;-74
2021/04/15 06:03:50;;;;;;;0.50;0.50;;;3.90;78.20;;;;;;5074926;28;20024;-74
2021/04/15 06:06:19;;;;;;;0.30;0.30;;;4.20;78.10;;;;;;5075821;28;20437;-74
2021/04/15 06:08:48;;;;;;;0.30;0.30;;;4.30;78.60;;;;;;5075349;28;20028;-74
2021/04/15 06:11:25;;;;;;;0.30;0.30;;;4.50;77.70;;;;;;5075192;28;20118;-74
2021/04/15 06:13:56;;;;;;;0.40;0.40;;;4.70;77.50;;;;;;5075273;28;20028;-73
2021/04/15 06:16:29;;;;;;;0.40;0.40;;;4.90;77.40;;;;;;5075345;28;20058;-73
2021/04/15 06:19:04;;;;;;;0.30;0.30;;;5.10;77.30;;;;;;5074725;28;20035;-74
2021/04/15 06:21:48;;;;;;;0.30;0.30;;;5.20;77.40;;;;;;5073722;28;20380;-72
2021/04/15 06:24:22;;;;;;;1.20;0.30;;;5.30;77.50;;;;;;5075110;28;20021;-74
2021/04/15 06:26:58;;;;;;;0.82;0.70;;;5.30;77.50;;;;;;5075183;28;20031;-74
2021/04/15 06:30:00;;;;;;;0.50;0.50;;;5.40;77.70;;;;;;5075069;28;20029;-74
2021/04/15 06:32:35;;;;;;;0.40;0.40;;;5.50;77.80;;;;;;5074423;28;20104;-74
2021/04/15 06:35:00;;;;;;;0.40;0.40;;;5.60;77.90;;;;;;5073635;28;20035;-74
2021/04/15 06:37:46;;;;;;;0.73;0.73;;;5.50;78.10;;;;;;5074727;28;20033;-73
2021/04/15 06:40:20;;;;;;;1.42;0.70;;;5.60;78.30;;;;;;5074729;28;20589;-74
2021/04/15 06:43:23;;;;;;;0.60;0.60;;;5.50;78.60;;;;;;5074624;28;20122;-74
2021/04/15 06:46:06;;;;;;;0.63;0.63;;;5.40;78.90;;;;;;5074549;28;20036;-75
2021/04/15 06:48:55;;;;;;;0.55;0.55;;;5.30;79.20;;;;;;5072900;28;20070;-74
2021/04/15 06:51:49;;;;;;;0.80;0.80;;;5.20;79.40;;;;;;5074694;28;20099;-73
2021/04/15 06:54:37;;;;;;;1.90;1.15;;;5.30;79.40;;;;;;5073144;28;20020;-73
2021/04/15 06:57:16;;;;;;;0.80;0.80;;;5.40;79.30;;;;;;5074257;28;20043;-73
2021/04/15 07:00:12;;;;;;;1.02;0.73;;;5.40;79.30;;;;;;5067060;28;20055;-74
2021/04/15 07:03:07;;;;;;;0.73;0.45;;;5.40;79.20;;;;;;5053808;28;20052;-73
2021/04/15 07:05:56;;;;;;;0.50;0.50;;;5.50;79.10;;;;;;5071253;28;20368;-73
2021/04/15 07:08:36;;;;;;;0.70;0.70;;;5.60;79.00;;;;;;5074135;28;20108;-74
2021/04/15 07:11:10;;;;;;;0.90;0.85;;;5.70;78.90;;;;;;5073863;28;20040;-73
2021/04/15 07:14:35;;;;;;;0.88;0.82;;;5.80;78.80;;;;;;5074090;28;20095;-74
2021/04/15 07:17:33;;;;;;;0.77;0.77;;;5.80;78.70;;;;;;4997483;28;20049;-74
2021/04/15 07:20:17;;;;;;;1.15;0.77;;;5.90;78.90;;;;;;4970447;28;20565;-74
2021/04/15 07:23:18;;;;;;;0.60;0.60;;;5.90;79.00;;;;;;4992038;28;20490;-74
2021/04/15 07:26:02;;;;;;;0.40;0.40;;;6.00;78.90;;;;;;4976261;28;20042;-74
2021/04/15 07:29:01;;;;;;;0.68;0.60;;;6.00;79.10;;;;;;4992407;28;20058;-73
2021/04/15 07:32:04;;;;;;;0.57;0.57;;;6.10;79.00;;;;;;4991709;28;20034;-74
2021/04/15 07:34:52;;;;;;;0.35;0.35;;;6.20;78.80;;;;;;4977110;28;20181;-73
2021/04/15 07:37:31;;;;;;;0.60;0.60;;;6.40;78.60;;;;;;4988190;28;20585;-74
2021/04/15 07:40:38;;;;;;;0.45;0.45;;;6.60;78.30;;;;;;4989019;28;20042;-73
2021/04/15 07:43:43;;;;;;;0.47;0.47;;;6.80;78.00;;;;;;4987892;28;20022;-73
2021/04/15 07:46:30;;;;;;;0.63;0.57;;;6.90;77.90;;;;;;4967833;28;20531;-73
2021/04/15 07:49:40;;;;;;;0.63;0.60;;;7.00;77.90;;;;;;5010653;28;20057;-73
2021/04/15 07:52:33;;;;;;;0.63;0.63;;;7.00;77.80;;;;;;4959822;28;20479;-74
2021/04/15 07:55:32;;;;;;;0.60;0.60;;;6.80;78.20;;;;;;4992007;28;20033;-74
2021/04/15 07:58:29;;;;;;;0.32;0.32;;;6.60;78.60;;;;;;5001066;28;20042;-75
2021/04/15 08:01:22;;;;;;;0.40;0.40;;;6.50;79.10;;;;;;5011022;28;20060;-74
2021/04/15 08:04:31;;;;;;;0.68;0.68;;;6.60;78.90;;;;;;5011413;28;20449;-76
2021/04/15 08:07:32;;;;;;;0.50;0.50;;;6.80;78.60;;;;;;5011471;28;20038;-75
2021/04/15 08:10:47;;;;;;;0.38;0.38;;;7.00;78.10;;;;;;5011010;28;20184;-76
2021/04/15 08:13:40;;;;;;;0.57;0.50;;;7.30;77.70;;;;;;4914772;29;20512;-74
2021/04/15 08:16:23;;;;;;;0.60;0.60;;;7.60;77.30;;;;;;4914070;29;20047;-74
2021/04/15 08:19:12;;;;;;;0.50;0.50;;;7.80;77.10;;;;;;4914885;29;20047;-74
2021/04/15 08:21:53;;;;;;;0.70;0.70;;;7.70;77.10;;;;;;4878451;29;20044;-73
2021/04/15 08:24:30;;;;;;;0.47;0.47;;;7.50;77.50;;;;;;4914456;29;20040;-74
2021/04/15 08:27:28;;;;;;;0.38;0.38;;;7.40;77.90;;;;;;4984015;28;20042;-74
2021/04/15 08:30:06;;;;;;;0.60;0.60;;;7.30;78.10;;;;;;4991058;28;20439;-75
2021/04/15 08:32:53;;;;;;;0.70;0.70;;;7.20;78.20;;;;;;4991440;28;20027;-74
2021/04/15 08:35:40;;;;;;;0.98;0.98;;;7.10;78.30;;;;;;4991492;28;20050;-74
2021/04/15 08:38:35;;;;;;;0.45;0.45;;;7.20;78.30;;;;;;4991218;28;20053;-74
2021/04/15 08:41:10;;;;;;;0.40;0.40;;;7.40;78.00;;;;;;4991437;28;20046;-74
2021/04/15 08:43:54;;;;;;;0.68;0.68;;;7.50;77.70;;;;;;4990971;28;20088;-75
2021/04/15 08:46:29;;;;;;;0.47;0.47;;;7.60;77.60;;;;;;4998482;28;20034;-75
2021/04/15 08:49:08;;;;;;;0.47;0.47;;;7.50;77.50;;;;;;5066127;28;20380;-75
2021/04/15 08:52:05;;;;;;;0.50;0.50;;;7.40;77.60;;;;;;5069176;28;20052;-74
2021/04/15 08:54:58;;;;;;;0.60;0.60;;;7.30;77.90;;;;;;5052733;28;20112;-74
2021/04/15 08:57:35;;;;;;;0.60;0.60;;;7.40;78.00;;;;;;5052115;28;20033;-74
2021/04/15 09:00:21;;;;;;;0.73;0.73;;;7.50;77.80;;;;;;5052355;28;20078;-74
2021/04/15 09:02:56;;;;;;;0.60;0.60;;;7.60;77.70;;;;;;5052667;28;20465;-75
2021/04/15 09:05:56;;;;;;;0.50;0.50;;;7.70;77.70;;;;;;5055506;28;20416;-74
2021/04/15 09:08:32;;;;;;;0.50;0.50;;;7.80;77.30;;;;;;5056912;28;20028;-76
2021/04/15 09:11:04;;;;;;;0.55;0.55;;;7.90;77.20;;;;;;5056664;28;20041;-74
2021/04/15 09:13:39;;;;;;;0.75;0.60;;;8.10;76.80;;;;;;5054034;28;20100;-75
2021/04/15 09:16:29;;;;;;;0.52;0.52;;;8.30;76.40;;;;;;5055233;28;20158;-76
2021/04/15 09:19:15;;;;;;;0.50;0.50;;;8.50;76.10;;;;;;5054849;28;20039;-75
2021/04/15 09:21:47;;;;;;;0.43;0.43;;;8.60;76.00;;;;;;5055990;28;20027;-74
2021/04/15 09:24:30;;;;;;;0.32;0.32;;;8.70;76.00;;;;;;5055785;28;20079;-75
2021/04/15 09:26:56;;;;;;;0.60;0.60;;;8.60;76.00;;;;;;5055513;28;20017;-74
2021/04/15 09:29:38;;;;;;;0.50;0.50;;;8.40;76.40;;;;;;5056009;28;20412;-75
2021/04/15 09:32:15;;;;;;;0.50;0.50;;;8.30;76.70;;;;;;5054578;28;20029;-74
2021/04/15 09:35:07;;;;;;;0.40;0.40;;;8.30;76.80;;;;;;5055656;28;20025;-75
2021/04/15 09:38:03;;;;;;;0.68;0.68;;;8.30;77.00;;;;;;5055757;28;20045;-76
2021/04/15 09:40:55;;;;;;;0.63;0.52;;;8.40;76.90;;;;;;5055412;28;20535;-75
2021/04/15 09:43:42;;;;;;;0.40;0.40;;;8.50;76.80;;;;;;5054522;28;20060;-75
2021/04/15 09:46:37;;;;;;;0.60;0.60;;;8.50;76.70;;;;;;5054592;28;20029;-75
2021/04/15 09:49:29;;;;;;;0.77;0.45;;;8.30;76.90;;;;;;5055590;28;20052;-74
2021/04/15 09:51:58;;;;;;;0.60;0.60;;;8.20;77.40;;;;;;5055747;28;20032;-75
2021/04/15 09:54:26;;;;;;;0.50;0.50;;;8.20;77.40;;;;;;5055745;28;20025;-75
2021/04/15 09:57:21;;;;;;;0.60;0.60;;;8.20;77.20;;;;;;5055253;28;20087;-76
2021/04/15 10:00:07;;;;;;;0.50;0.50;;;8.30;76.80;;;;;;5055380;28;20025;-73
2021/04/15 10:03:00;;;;;;;0.57;0.50;;;8.30;76.90;;;;;;5055295;28;20017;-75
2021/04/15 10:05:29;;;;;;;0.50;0.50;;;8.30;76.60;;;;;;5054100;28;20033;-76
2021/04/15 10:07:59;;;;;;;1.13;0.85;;;8.50;76.50;;;;;;5055231;28;20021;-77
2021/04/15 10:10:45;;;;;;;0.40;0.40;;;8.50;76.10;;;;;;5053429;28;20539;-76
2021/04/15 10:13:39;;;;;;;0.50;0.50;;;8.60;76.00;;;;;;5055105;28;20119;-76
2021/04/15 10:16:22;;;;;;;0.60;0.60;;;8.70;76.20;;;;;;5030194;28;20073;-84
2021/04/15 10:19:31;;;;;;;0.60;0.60;;;9.10;75.50;;;;;;5075838;28;20021;-86
2021/04/15 10:22:15;;;;;;;0.80;0.77;;;9.30;75.20;;;;;;5075181;28;20021;-83
2021/04/15 10:24:46;;;;;;;0.70;0.70;;;9.30;75.00;;;;;;5075137;28;20056;-82
2021/04/15 10:27:31;;;;;;;0.65;0.65;;;9.10;75.60;;;;;;5074467;28;20026;-86
2021/04/15 10:30:18;;;;;;;0.43;0.43;;;9.10;75.70;;;;;;5058366;28;20088;-84
2021/04/15 10:33:11;;;;;;;0.60;0.60;;;9.10;75.70;;;;;;5067905;28;20524;-84
2021/04/15 10:35:55;;;;;;;0.85;0.85;;;9.30;75.40;;;;;;5075402;28;20035;-84
2021/04/15 10:38:58;;;;;;;0.80;0.80;;;9.40;75.50;;;;;;5074097;28;20370;-83
2021/04/15 10:42:15;;;;;;;0.65;0.60;;;9.50;75.30;;;;;;5074918;28;20453;-84
2021/04/15 10:45:01;;;;;;;0.52;0.50;;;9.60;75.00;;;;;;5013332;28;20046;-85
2021/04/15 10:47:50;;;;;;;0.60;0.60;;;9.50;75.10;;;;;;5012579;28;20041;-85
2021/04/15 10:50:22;;;;;;;1.05;0.95;;;9.40;75.50;;;;;;5013132;28;20034;-82
2021/04/15 10:53:00;;;;;;;0.60;0.60;;;9.50;75.40;;;;;;5014533;28;20030;-86
2021/04/15 10:55:40;;;;;;;0.77;0.77;;;9.70;75.20;;;;;;5013285;28;20061;-86
2021/04/15 10:58:40;;;;;;;0.65;0.65;;;9.90;74.70;;;;;;5013485;28;20069;-84
2021/04/15 11:01:23;;;;;;;0.93;0.60;;;10.10;74.50;;;;;;5012732;28;20113;-86
2021/04/15 11:03:49;;;;;;;0.75;0.75;;;10.20;74.60;;;;;;5014201;28;20072;-87
2021/04/15 11:06:46;;;;;;;0.82;0.75;;;10.50;74.40;;;;;;5014805;28;20026;-80
2021/04/15 11:09:31;;;;;;;0.45;0.45;;;10.90;73.80;;;;;;5011228;28;20096;-86
2021/04/15 11:12:15;;;;;;;0.70;0.70;;;11.30;73.30;;;;;;5012624;28;20050;-83
2021/04/15 11:14:46;;;;;;;0.85;0.75;;;11.60;72.90;;;;;;4996313;28;20046;-80
2021/04/15 11:17:33;;;;;;;0.70;0.70;;;11.80;72.80;;;;;;5012281;28;20037;-81
2021/04/15 11:20:13;;;;;;;0.77;0.77;;;11.80;72.70;;;;;;5035749;28;20028;-82
2021/04/15 11:23:10;;;;;;;1.00;0.90;;;11.60;73.20;;;;;;5073654;28;20070;-82
2021/04/15 11:25:45;;;;;;;0.70;0.70;;;11.20;73.50;;;;;;5054964;28;20082;-78
2021/04/15 11:28:23;;;;;;;0.82;0.80;;;10.80;74.30;;;;;;5060063;28;20036;-84
2021/04/15 11:30:51;;;;;;;0.55;0.55;;;10.60;74.70;;;;;;5053152;28;20040;-85
2021/04/15 11:33:40;;;;;;;0.63;0.63;;;10.40;74.80;;;;;;5053915;28;20084;-85
2021/04/15 11:36:07;;;;;;;0.75;0.75;;;10.30;74.90;;;;;;5054077;28;20048;-85
2021/04/15 11:38:33;;;;;;;0.90;0.90;;;10.30;75.00;;;;;;5053421;28;20028;-85
2021/04/15 11:40:59;;;;;;;0.90;0.90;;;10.40;74.60;;;;;;5053357;28;20064;-84
2021/04/15 11:43:29;;;;;;;0.70;0.70;;;10.40;74.30;;;;;;5054091;28;20053;-85
2021/04/15 11:46:10;;;;;;;0.65;0.65;;;10.50;74.00;;;;;;5053119;28;20033;-85
2021/04/15 11:48:36;;;;;;;0.68;0.68;;;10.70;73.70;;;;;;5056057;28;20048;-85
2021/04/15 11:51:22;;;;;;;0.60;0.60;;;11.30;73.20;;;;;;5203196;23;20048;-85
2021/04/15 11:53:51;;;;;;;0.73;0.73;;;12.00;72.00;;;;;;5054127;28;20021;-85
2021/04/15 11:56:35;;;;;;;0.60;0.60;;;12.40;71.20;;;;;;5061082;28;20528;-83
2021/04/15 11:59:28;;;;;;;1.05;1.02;;;12.40;70.50;;;;;;5072842;28;20040;-85
2021/04/15 12:02:14;;;;;;;0.80;0.80;;;11.90;71.20;;;;;;5074146;28;20074;-84
2021/04/15 12:04:39;;;;;;;1.20;0.77;;;11.30;72.20;;;;;;5072913;28;20020;-83
2021/04/15 12:07:20;;;;;;;0.68;0.68;;;11.00;73.00;;;;;;5073415;28;20017;-85
2021/04/15 12:09:46;;;;;;;0.60;0.60;;;10.70;73.30;;;;;;5055127;28;20453;-85
2021/04/15 12:12:18;;;;;;;0.60;0.60;;;10.50;73.80;;;;;;5054015;28;20053;-86
2021/04/15 12:14:44;;;;;;;0.70;0.70;;;10.50;73.60;;;;;;5053677;28;20068;-85
2021/04/15 12:17:33;;;;;;;0.95;0.90;;;10.40;73.20;;;;;;5057798;28;20035;-85
2021/04/15 12:20:23;;;;;;;0.93;0.85;;;10.40;73.20;;;;;;5064592;28;20028;-86
2021/04/15 12:23:22;;;;;;;0.80;0.80;;;10.30;73.10;;;;;;5073288;28;20078;-84
2021/04/15 12:26:04;;;;;;;0.98;0.93;;;10.20;73.00;;;;;;5068158;28;20083;-86
2021/04/15 12:28:46;;;;;;;0.90;0.90;;;10.30;72.80;;;;;;5053928;28;20122;-85
2021/04/15 12:31:27;;;;;;;0.57;0.57;;;10.70;72.10;;;;;;5058007;28;20079;-85
2021/04/15 12:34:26;;;;;;;0.63;0.63;;;10.90;71.50;;;;;;5073946;28;20051;-85
2021/04/15 12:37:02;;;;;;;0.70;0.70;;;11.00;71.20;;;;;;5080295;28;20079;-84
2021/04/15 12:39:44;;;;;;;0.90;0.90;;;10.90;71.00;;;;;;5096797;28;20043;-85
2021/04/15 12:42:10;;;;;;;1.13;1.02;;;10.90;71.00;;;;;;5081044;28;20032;-87
2021/04/15 12:44:37;;;;;;;0.75;0.75;;;11.00;71.00;;;;;;5077689;28;20021;-87
2021/04/15 12:47:04;;;;;;;0.93;0.85;;;11.20;70.60;;;;;;5063728;28;20025;-84
2021/04/15 12:49:35;;;;;;;0.95;0.85;;;11.20;70.30;;;;;;5056106;28;20032;-83
2021/04/15 12:52:03;;;;;;;0.95;0.80;;;11.30;70.30;;;;;;5057163;28;20032;-84
2021/04/15 12:54:35;;;;;;;0.75;0.63;;;11.20;70.20;;;;;;5057387;28;20480;-83
2021/04/15 12:57:06;;;;;;;0.88;0.77;;;11.10;70.40;;;;;;5057747;28;20036;-87
2021/04/15 12:59:36;;;;;;;0.85;0.85;;;10.90;70.60;;;;;;5055996;28;20476;-82
2021/04/15 13:02:04;;;;;;;0.50;0.50;;;10.80;70.80;;;;;;5056835;28;20033;-82
2021/04/15 13:04:30;;;;;;;0.70;0.70;;;10.80;70.90;;;;;;5052448;28;20013;-82
2021/04/15 13:07:01;;;;;;;1.13;0.98;;;10.80;70.80;;;;;;5055539;28;20035;-80
2021/04/15 13:09:45;;;;;;;0.60;0.60;;;10.80;70.50;;;;;;5056793;28;20476;-82
2021/04/15 13:12:32;;;;;;;0.98;0.65;;;10.70;70.30;;;;;;5056046;28;20480;-83
2021/04/15 13:15:00;;;;;;;0.60;0.60;;;10.60;70.40;;;;;;5054984;28;20025;-82
2021/04/15 13:17:44;;;;;;;0.60;0.60;;;10.60;70.40;;;;;;5056265;28;20067;-82
2021/04/15 13:20:19;;;;;;;0.68;0.57;;;10.80;69.90;;;;;;5054653;28;20029;-82
2021/04/15 13:23:14;;;;;;;0.70;0.70;;;10.90;69.70;;;;;;5056154;28;20106;-84
2021/04/15 13:25:48;;;;;;;0.60;0.60;;;11.00;69.40;;;;;;5056318;28;20021;-83
2021/04/15 13:28:14;;;;;;;0.77;0.77;;;11.10;69.20;;;;;;5056619;28;20029;-85
2021/04/15 13:30:39;;;;;;;0.75;0.75;;;11.20;69.20;;;;;;5055343;28;20013;-87
2021/04/15 13:34:00;;;;;;;0.93;0.60;;;11.30;68.90;;;;;;5055265;28;20471;-85
2021/04/15 13:36:26;;;;;;;0.70;0.70;;;11.40;69.10;;;;;;5057844;28;20051;-84
2021/04/15 13:38:58;;;;;;;0.60;0.60;;;11.40;69.00;;;;;;5067012;28;20437;-84
2021/04/15 13:41:24;;;;;;;0.38;0.38;;;11.40;68.80;;;;;;5076174;28;20087;-84
2021/04/15 13:43:59;;;;;;;0.65;0.65;;;11.60;69.00;;;;;;5075967;28;20050;-84
2021/04/15 13:46:24;;;;;;;0.80;0.68;;;12.20;68.30;;;;;;5076739;28;20024;-88
2021/04/15 13:48:57;;;;;;;0.60;0.60;;;13.10;66.80;;;;;;5076087;28;20027;-84
2021/04/15 13:51:28;;;;;;;0.45;0.35;;;13.70;65.20;;;;;;5065093;28;20510;-86
2021/04/15 13:54:40;;;;;;;1.38;0.90;;;13.70;65.00;;;;;;5056344;28;20048;-84
2021/04/15 13:57:08;;;;;;;0.52;0.52;;;13.40;65.40;;;;;;5056469;28;20029;-84
2021/04/15 13:59:35;;;;;;;0.90;0.70;;;12.80;66.70;;;;;;5056483;28;20076;-84